Time;durP1;ratioP1;P1;durP2;ratioP2;P2;SDS_P1;SDS_P2;PMS_P1;PMS_P2;Temp;Humidity;BMP_temperature;BMP_pressure;BME280_temperature;BME280_humidity;BME280_pressure;Samples;Min_cycle;Max_cycle;Signal;HPM_P1;HPM_P2
2022/12/03 00:01:54;;;;;;;26.77;13.67;;;3.20;99.90;;;;;;5095670;28;20290;-72
2022/12/03 00:04:19;;;;;;;30.47;16.20;;;3.30;99.90;;;;;;5095765;28;20175;-72
2022/12/03 00:06:45;;;;;;;30.47;16.90;;;3.20;99.90;;;;;;5095829;28;20175;-73
2022/12/03 00:09:10;;;;;;;37.87;21.77;;;3.10;99.90;;;;;;5095733;28;20172;-73
2022/12/03 00:11:36;;;;;;;31.93;18.13;;;3.10;99.90;;;;;;5095385;28;20650;-72
2022/12/03 00:14:02;;;;;;;33.50;19.40;;;3.10;99.90;;;;;;5095711;28;20259;-73
2022/12/03 00:16:27;;;;;;;34.20;19.50;;;3.10;99.90;;;;;;5095753;28;20175;-72
2022/12/03 00:18:53;;;;;;;32.43;17.93;;;3.10;99.90;;;;;;5095534;28;20642;-72
2022/12/03 00:21:18;;;;;;;34.53;19.10;;;3.00;99.90;;;;;;5077389;28;20219;-73
2022/12/03 00:23:44;;;;;;;32.40;16.47;;;3.00;99.90;;;;;;5095502;28;20180;-72
2022/12/03 00:26:09;;;;;;;32.27;18.30;;;3.00;99.90;;;;;;5095190;28;20168;-73
2022/12/03 00:28:35;;;;;;;33.10;18.30;;;3.10;99.90;;;;;;5095351;28;20172;-73
2022/12/03 00:31:01;;;;;;;32.97;18.00;;;3.00;99.90;;;;;;5095210;28;20203;-72
2022/12/03 00:33:26;;;;;;;30.17;17.33;;;3.10;99.90;;;;;;5095375;28;20168;-73
2022/12/03 00:35:52;;;;;;;28.33;16.07;;;3.10;99.90;;;;;;5095144;28;20168;-73
2022/12/03 00:38:17;;;;;;;36.33;20.97;;;3.00;99.90;;;;;;5095237;28;20176;-72
2022/12/03 00:40:43;;;;;;;26.87;16.13;;;3.00;99.90;;;;;;5094733;28;20204;-72
2022/12/03 00:43:08;;;;;;;28.83;15.03;;;3.00;99.90;;;;;;5095111;28;20278;-73
2022/12/03 00:45:34;;;;;;;38.53;21.70;;;3.10;99.90;;;;;;5095164;28;20176;-72
2022/12/03 00:48:00;;;;;;;34.43;20.70;;;3.00;99.90;;;;;;5093929;28;20183;-73
2022/12/03 00:50:25;;;;;;;32.47;17.30;;;3.00;99.90;;;;;;5094800;28;20639;-73
2022/12/03 00:52:51;;;;;;;35.30;19.63;;;3.00;99.90;;;;;;5094995;28;20167;-72
2022/12/03 00:55:16;;;;;;;38.57;19.63;;;3.00;99.90;;;;;;5094654;28;20168;-72
2022/12/03 00:57:42;;;;;;;33.63;17.33;;;3.00;99.90;;;;;;5095021;28;20222;-72
2022/12/03 01:00:08;;;;;;;28.37;15.23;;;3.00;99.90;;;;;;5094820;28;20707;-72
2022/12/03 01:02:34;;;;;;;32.03;19.60;;;3.00;99.90;;;;;;5094654;28;20245;-72
2022/12/03 01:05:00;;;;;;;31.27;19.00;;;3.00;99.90;;;;;;5094632;28;20634;-72
2022/12/03 01:07:26;;;;;;;23.63;13.47;;;3.00;99.90;;;;;;5094866;28;20225;-74
2022/12/03 01:09:52;;;;;;;31.20;19.07;;;3.00;99.90;;;;;;5094001;28;20219;-72
2022/12/03 01:12:17;;;;;;;31.47;17.20;;;2.90;99.90;;;;;;5094760;28;20178;-72
2022/12/03 01:14:43;;;;;;;35.23;21.47;;;3.00;99.90;;;;;;5094742;28;20164;-72
2022/12/03 01:17:09;;;;;;;32.27;18.73;;;2.90;99.90;;;;;;5094572;28;20174;-72
2022/12/03 01:19:35;;;;;;;32.67;18.03;;;2.90;99.90;;;;;;5094441;28;20702;-72
2022/12/03 01:22:01;;;;;;;33.97;19.43;;;2.90;99.90;;;;;;5094156;28;20245;-72
2022/12/03 01:24:27;;;;;;;35.37;20.80;;;3.10;99.90;;;;;;5092737;28;20292;-71
2022/12/03 01:26:54;;;;;;;33.20;18.97;;;2.90;99.90;;;;;;5094502;28;20209;-71
2022/12/03 01:29:20;;;;;;;27.67;15.40;;;3.00;99.90;;;;;;5094495;28;20179;-70
2022/12/03 01:34:29;;;;;;;33.90;20.13;;;2.90;99.90;;;;;;5094314;28;20175;-71
2022/12/03 01:36:55;;;;;;;31.80;17.20;;;2.90;99.90;;;;;;5094322;28;20172;-72
2022/12/03 01:39:21;;;;;;;33.97;18.80;;;2.90;99.90;;;;;;5093893;28;20172;-71
2022/12/03 01:41:48;;;;;;;34.57;21.03;;;2.90;99.90;;;;;;5094072;28;20604;-70
2022/12/03 01:44:24;;;;;;;36.63;19.13;;;2.90;99.90;;;;;;5093675;28;20194;-72
2022/12/03 01:46:52;;;;;;;36.83;21.07;;;3.00;99.90;;;;;;5075827;28;20198;-72
2022/12/03 01:49:28;;;;;;;30.47;18.13;;;2.90;99.90;;;;;;5094070;28;20172;-71
2022/12/03 01:51:55;;;;;;;32.77;15.23;;;3.00;99.90;;;;;;5093795;28;20602;-73
2022/12/03 01:54:49;;;;;;;31.33;17.20;;;2.90;99.90;;;;;;5093543;28;20623;-73
2022/12/03 01:57:23;;;;;;;29.87;18.50;;;2.90;99.90;;;;;;5093866;28;20188;-72
2022/12/03 01:59:50;;;;;;;32.37;18.40;;;2.90;99.90;;;;;;5093700;28;20164;-71
2022/12/03 02:02:27;;;;;;;34.07;18.07;;;2.90;99.90;;;;;;5092316;28;20212;-71
2022/12/03 02:04:53;;;;;;;34.33;19.97;;;2.90;99.90;;;;;;5093774;28;20160;-71
2022/12/03 02:07:23;;;;;;;35.20;22.17;;;2.90;99.90;;;;;;5093395;28;20237;-71
2022/12/03 02:09:49;;;;;;;34.47;20.47;;;2.90;99.90;;;;;;5093184;28;20214;-72
2022/12/03 02:12:18;;;;;;;27.53;14.90;;;2.90;99.90;;;;;;5093449;28;20176;-72
2022/12/03 02:14:44;;;;;;;33.10;19.73;;;2.90;99.90;;;;;;5093412;28;20321;-71
2022/12/03 02:17:11;;;;;;;35.30;21.00;;;2.90;99.90;;;;;;5093522;28;20648;-71
2022/12/03 02:19:37;;;;;;;28.87;15.00;;;3.00;99.90;;;;;;5093590;28;20206;-71
2022/12/03 02:22:12;;;;;;;37.73;21.23;;;2.90;99.90;;;;;;5092942;28;20242;-71
2022/12/03 02:24:50;;;;;;;34.40;20.53;;;2.90;99.90;;;;;;5075284;28;20171;-71
2022/12/03 02:27:16;;;;;;;36.10;20.37;;;2.90;99.90;;;;;;5093450;28;20194;-72
2022/12/03 02:29:41;;;;;;;26.67;14.43;;;2.90;99.90;;;;;;5093413;28;20172;-71
2022/12/03 02:32:07;;;;;;;37.97;21.77;;;2.90;99.90;;;;;;5093412;28;20242;-71
2022/12/03 02:34:35;;;;;;;35.67;20.20;;;2.90;99.90;;;;;;5093298;28;20179;-71
2022/12/03 02:37:02;;;;;;;29.03;16.90;;;2.90;99.90;;;;;;5093073;28;20232;-71
2022/12/03 02:39:28;;;;;;;31.97;19.10;;;2.90;99.90;;;;;;5093447;28;20175;-71
2022/12/03 02:44:38;;;;;;;35.83;20.23;;;2.80;99.90;;;;;;5093193;28;20198;-71
2022/12/03 02:47:03;;;;;;;33.17;20.43;;;2.70;99.90;;;;;;5093147;28;20247;-71
2022/12/03 02:49:29;;;;;;;27.80;15.13;;;2.80;99.90;;;;;;5093315;28;20236;-72
2022/12/03 02:51:55;;;;;;;38.30;21.00;;;2.70;99.90;;;;;;5092843;28;20193;-71
2022/12/03 02:54:21;;;;;;;33.93;18.43;;;2.70;99.90;;;;;;5093578;28;20179;-72
2022/12/03 02:56:46;;;;;;;35.80;19.73;;;2.70;99.90;;;;;;5097246;28;20532;-72
2022/12/03 02:59:12;;;;;;;30.27;16.90;;;2.70;99.90;;;;;;5097165;28;20171;-71
2022/12/03 03:01:37;;;;;;;32.37;17.17;;;2.70;99.90;;;;;;5096845;28;20689;-71
2022/12/03 03:04:04;;;;;;;30.70;18.00;;;2.70;99.90;;;;;;5097111;28;20185;-72
2022/12/03 03:06:30;;;;;;;36.00;20.30;;;2.70;99.90;;;;;;5096976;28;20176;-71
2022/12/03 03:08:56;;;;;;;35.43;21.07;;;2.80;99.90;;;;;;5097112;28;20532;-71
2022/12/03 03:11:22;;;;;;;37.57;18.40;;;2.70;99.90;;;;;;5096560;28;20698;-71
2022/12/03 03:13:48;;;;;;;35.43;21.07;;;2.70;99.90;;;;;;5096855;28;20172;-71
2022/12/03 03:16:13;;;;;;;31.27;16.37;;;2.70;99.90;;;;;;5096743;28;20168;-70
2022/12/03 03:18:39;;;;;;;35.40;17.13;;;2.70;99.90;;;;;;5096872;28;20196;-71
2022/12/03 03:21:05;;;;;;;35.77;20.73;;;2.80;99.90;;;;;;5096378;28;20221;-71
2022/12/03 03:23:31;;;;;;;35.27;21.47;;;2.80;99.90;;;;;;5096660;28;20168;-72
2022/12/03 03:26:04;;;;;;;38.20;20.03;;;2.80;99.90;;;;;;5096665;28;20554;-71
2022/12/03 03:28:31;;;;;;;32.77;17.43;;;2.80;99.90;;;;;;5096598;28;20164;-72
2022/12/03 03:30:59;;;;;;;26.77;14.30;;;2.80;99.90;;;;;;5078438;28;20173;-72
2022/12/03 03:33:25;;;;;;;34.80;18.43;;;2.80;99.90;;;;;;5096638;28;20172;-71
2022/12/03 03:35:51;;;;;;;33.47;19.10;;;2.80;99.90;;;;;;5096083;28;20316;-72
2022/12/03 03:38:19;;;;;;;33.10;18.60;;;2.80;99.90;;;;;;5096561;28;20168;-71
2022/12/03 03:40:48;;;;;;;33.20;18.10;;;2.80;99.90;;;;;;5096401;28;20200;-71
2022/12/03 03:43:13;;;;;;;33.27;19.20;;;2.80;99.90;;;;;;5096097;28;20176;-71
2022/12/03 03:45:40;;;;;;;39.17;20.93;;;2.90;99.90;;;;;;5096260;28;20663;-71
2022/12/03 03:48:06;;;;;;;37.77;21.30;;;2.80;99.90;;;;;;5096274;28;20160;-71
2022/12/03 03:50:31;;;;;;;35.53;20.13;;;2.90;99.90;;;;;;5095796;28;20225;-72
2022/12/03 03:52:59;;;;;;;36.57;21.27;;;2.90;99.90;;;;;;5096004;28;20172;-72
2022/12/03 03:55:25;;;;;;;38.03;20.53;;;2.90;99.90;;;;;;5096034;28;20624;-71
2022/12/03 03:57:51;;;;;;;35.83;21.23;;;2.90;99.90;;;;;;5077805;28;20223;-71
2022/12/03 04:00:17;;;;;;;35.13;21.43;;;2.80;99.90;;;;;;5095925;28;20678;-70
2022/12/03 04:02:44;;;;;;;34.00;19.40;;;2.90;99.90;;;;;;5095813;28;20540;-73
2022/12/03 04:05:18;;;;;;;31.77;18.83;;;2.80;99.90;;;;;;5095267;28;20168;-72
2022/12/03 04:07:44;;;;;;;35.33;19.40;;;2.80;99.90;;;;;;5095898;28;20215;-71
2022/12/03 04:12:54;;;;;;;37.20;20.80;;;2.80;99.90;;;;;;5095926;28;20599;-72
2022/12/03 04:15:19;;;;;;;31.37;20.70;;;2.90;99.90;;;;;;5095746;28;20172;-71
2022/12/03 04:18:41;;;;;;;34.03;19.20;;;2.90;99.90;;;;;;5095502;28;20172;-71
2022/12/03 04:20:30;;;;;;;35.83;19.10;;;2.90;99.90;;;;;;5095142;28;20207;-71
2022/12/03 04:22:56;;;;;;;29.50;17.13;;;2.90;99.90;;;;;;5095292;28;20172;-72
2022/12/03 04:30:51;;;;;;;34.40;20.47;;;2.90;99.90;;;;;;5095610;28;20179;-71
2022/12/03 04:36:00;;;;;;;31.23;16.37;;;2.80;99.90;;;;;;5095257;28;20174;-71
2022/12/03 04:38:26;;;;;;;34.00;20.27;;;2.90;99.90;;;;;;5095234;28;20168;-72
2022/12/03 04:41:00;;;;;;;34.97;21.10;;;2.80;99.90;;;;;;5094920;28;20234;-71
2022/12/03 04:43:27;;;;;;;36.40;20.87;;;2.90;99.90;;;;;;5094830;28;20255;-72
2022/12/03 04:45:52;;;;;;;33.70;19.20;;;2.90;99.90;;;;;;5095032;28;20536;-72
2022/12/03 04:48:18;;;;;;;31.27;18.90;;;2.90;99.90;;;;;;5094567;28;20225;-71
2022/12/03 04:50:44;;;;;;;32.43;19.27;;;2.90;99.90;;;;;;5095031;28;20530;-72
2022/12/03 04:53:10;;;;;;;34.20;19.90;;;2.90;99.90;;;;;;5094864;28;20164;-71
2022/12/03 04:55:36;;;;;;;22.57;11.80;;;2.80;99.90;;;;;;5094865;28;20179;-71
2022/12/03 04:58:01;;;;;;;28.23;15.97;;;2.80;99.90;;;;;;5094794;28;20172;-71
2022/12/03 05:00:27;;;;;;;36.47;19.50;;;2.80;99.90;;;;;;5094807;28;20662;-72
2022/12/03 05:02:52;;;;;;;34.57;20.73;;;2.70;99.90;;;;;;5094425;28;20198;-72
2022/12/03 05:05:18;;;;;;;32.20;18.97;;;2.70;99.90;;;;;;5094151;28;20247;-73
2022/12/03 05:07:44;;;;;;;34.13;20.07;;;2.70;99.90;;;;;;5094521;28;20187;-71
2022/12/03 05:10:10;;;;;;;34.53;20.20;;;2.80;99.90;;;;;;5094207;28;20247;-72
2022/12/03 05:12:35;;;;;;;32.97;18.57;;;2.80;99.90;;;;;;5094633;28;20237;-71
2022/12/03 05:15:02;;;;;;;27.73;15.73;;;2.90;99.90;;;;;;5094493;28;20950;-72
2022/12/03 05:17:27;;;;;;;34.03;19.23;;;2.80;99.90;;;;;;5092980;28;20180;-71
2022/12/03 05:22:37;;;;;;;33.43;19.47;;;2.80;99.90;;;;;;5094465;28;20229;-72
2022/12/03 05:25:03;;;;;;;32.67;19.37;;;2.80;99.90;;;;;;5094097;28;20176;-71
2022/12/03 05:27:29;;;;;;;33.47;20.60;;;2.80;99.90;;;;;;5094211;28;20171;-71
2022/12/03 05:29:54;;;;;;;32.43;19.13;;;2.70;99.90;;;;;;5092495;28;20175;-71
2022/12/03 05:32:20;;;;;;;37.30;21.97;;;2.70;99.90;;;;;;5094014;28;20172;-71
2022/12/03 05:34:45;;;;;;;34.10;19.30;;;2.70;99.90;;;;;;5092509;28;20175;-71
2022/12/03 05:37:11;;;;;;;33.40;17.90;;;2.70;99.90;;;;;;5094182;28;20639;-71
2022/12/03 05:39:37;;;;;;;31.10;16.67;;;2.70;99.90;;;;;;5094113;28;20164;-71
2022/12/03 05:44:47;;;;;;;35.33;18.90;;;2.60;99.90;;;;;;5093484;28;20214;-72
2022/12/03 05:47:13;;;;;;;34.10;20.50;;;2.70;99.90;;;;;;5093750;28;20167;-71
2022/12/03 05:49:38;;;;;;;35.20;19.83;;;2.60;99.90;;;;;;5092426;28;20198;-70
2022/12/03 05:52:04;;;;;;;33.73;19.27;;;2.60;99.90;;;;;;5093937;28;20240;-71
2022/12/03 05:54:29;;;;;;;37.10;20.53;;;2.60;99.90;;;;;;5093453;28;20167;-71
2022/12/03 05:56:55;;;;;;;32.27;18.87;;;2.60;99.90;;;;;;5092027;28;20214;-71
2022/12/03 05:59:21;;;;;;;36.43;20.17;;;2.60;99.90;;;;;;5093084;28;20172;-72
2022/12/03 06:01:46;;;;;;;34.07;18.63;;;2.60;99.90;;;;;;5093453;28;20246;-71
2022/12/03 06:04:12;;;;;;;37.03;20.30;;;2.50;99.90;;;;;;5093281;28;20607;-71
2022/12/03 06:06:37;;;;;;;34.03;19.90;;;2.60;99.90;;;;;;5093591;28;20265;-71
2022/12/03 06:09:03;;;;;;;38.43;20.97;;;2.60;99.90;;;;;;5093525;28;20164;-71
2022/12/03 06:11:32;;;;;;;39.37;21.97;;;2.60;99.90;;;;;;5092934;28;20234;-71
2022/12/03 06:13:58;;;;;;;37.50;21.37;;;2.70;99.90;;;;;;5092848;28;20176;-71
2022/12/03 06:16:24;;;;;;;35.10;19.07;;;2.70;99.90;;;;;;5093339;28;20187;-72
2022/12/03 06:18:49;;;;;;;37.07;21.77;;;2.60;99.90;;;;;;5093096;28;20229;-72
2022/12/03 06:21:15;;;;;;;36.00;22.63;;;2.60;99.90;;;;;;5093093;28;20671;-71
2022/12/03 06:23:43;;;;;;;36.17;20.43;;;2.60;99.90;;;;;;5093036;28;20168;-71
2022/12/03 06:26:10;;;;;;;38.60;22.47;;;2.60;99.90;;;;;;5093409;28;20171;-72
2022/12/03 06:28:36;;;;;;;39.03;22.30;;;2.70;99.90;;;;;;5092734;28;20175;-72
2022/12/03 06:31:01;;;;;;;38.47;20.00;;;2.60;99.90;;;;;;5093019;28;20541;-72
2022/12/03 06:33:27;;;;;;;39.33;22.47;;;2.60;99.90;;;;;;5093035;28;20164;-71
2022/12/03 06:35:52;;;;;;;37.20;22.50;;;2.60;99.90;;;;;;5093026;28;20650;-71
2022/12/03 06:38:18;;;;;;;37.70;22.10;;;2.60;99.90;;;;;;5093373;28;20179;-71
2022/12/03 06:40:43;;;;;;;40.50;22.07;;;2.60;99.90;;;;;;5093180;28;20204;-71
2022/12/03 06:43:09;;;;;;;34.00;17.10;;;2.60;99.90;;;;;;5092523;28;20253;-72
2022/12/03 06:45:35;;;;;;;37.43;21.43;;;2.60;99.90;;;;;;5092691;28;20650;-71
2022/12/03 06:48:00;;;;;;;40.93;23.73;;;2.60;99.90;;;;;;5093126;28;20270;-72
2022/12/03 06:50:26;;;;;;;41.50;24.00;;;2.70;99.90;;;;;;5091341;28;20572;-71
2022/12/03 06:52:51;;;;;;;43.13;23.47;;;2.70;99.90;;;;;;5092682;28;20159;-70
2022/12/03 06:55:17;;;;;;;37.00;22.90;;;2.80;99.90;;;;;;5092671;28;20250;-71
2022/12/03 06:57:42;;;;;;;38.83;20.60;;;2.80;99.90;;;;;;5091998;28;20619;-71
2022/12/03 07:00:09;;;;;;;37.33;21.33;;;2.80;99.90;;;;;;5092573;28;20218;-71
2022/12/03 07:02:35;;;;;;;38.67;22.70;;;2.70;99.90;;;;;;5092877;28;20182;-72
2022/12/03 07:05:00;;;;;;;41.00;23.83;;;2.70;99.90;;;;;;5092774;28;20164;-72
2022/12/03 07:07:26;;;;;;;42.13;23.20;;;2.70;99.90;;;;;;5092846;28;20176;-71
2022/12/03 07:09:52;;;;;;;40.73;22.90;;;2.70;99.90;;;;;;5092265;28;20752;-71
2022/12/03 07:12:17;;;;;;;41.23;22.93;;;2.70;99.90;;;;;;5092219;28;20195;-71
2022/12/03 07:14:43;;;;;;;42.17;22.27;;;2.80;99.90;;;;;;5092595;28;20164;-71
2022/12/03 07:17:09;;;;;;;38.53;21.83;;;2.80;99.90;;;;;;5091434;28;20176;-72
2022/12/03 07:19:34;;;;;;;40.63;22.10;;;2.80;99.90;;;;;;5092299;28;20182;-71
2022/12/03 07:22:00;;;;;;;42.43;22.77;;;2.80;99.90;;;;;;5092241;28;20196;-71
2022/12/03 07:24:25;;;;;;;40.67;23.00;;;2.80;99.90;;;;;;5092652;28;20658;-72
2022/12/03 07:26:51;;;;;;;35.90;20.40;;;2.90;99.90;;;;;;5092302;28;20175;-72
2022/12/03 07:29:16;;;;;;;39.87;23.03;;;2.90;99.90;;;;;;5092478;28;20179;-71
2022/12/03 07:31:42;;;;;;;40.53;22.40;;;3.00;99.90;;;;;;5092509;28;20658;-72
2022/12/03 07:34:08;;;;;;;36.07;20.90;;;2.90;99.90;;;;;;5092673;28;20537;-71
2022/12/03 07:36:33;;;;;;;40.10;22.93;;;2.90;99.90;;;;;;5092170;28;20211;-72
2022/12/03 07:38:59;;;;;;;38.80;23.27;;;2.80;99.90;;;;;;5092788;28;20688;-70
2022/12/03 07:41:24;;;;;;;37.90;21.90;;;2.90;99.90;;;;;;5093939;28;20243;-74
2022/12/03 07:43:50;;;;;;;39.40;22.47;;;2.90;99.90;;;;;;5095669;28;20211;-73
2022/12/03 07:46:16;;;;;;;40.03;23.60;;;2.80;99.90;;;;;;5096068;28;20515;-72
2022/12/03 07:48:41;;;;;;;40.67;22.97;;;2.90;99.90;;;;;;5095773;28;20198;-71
2022/12/03 07:51:07;;;;;;;40.23;22.20;;;2.90;99.90;;;;;;5096119;28;20164;-70
2022/12/03 07:53:34;;;;;;;45.23;23.13;;;3.00;99.90;;;;;;5095546;28;20194;-72
2022/12/03 07:56:01;;;;;;;37.33;17.47;;;3.00;99.90;;;;;;5095554;28;20172;-72
2022/12/03 07:58:27;;;;;;;41.63;23.30;;;2.90;99.90;;;;;;5076951;28;20286;-73
2022/12/03 08:00:52;;;;;;;39.40;22.17;;;2.90;99.90;;;;;;5095261;28;20271;-72
2022/12/03 08:03:18;;;;;;;42.63;23.63;;;2.90;99.90;;;;;;5095734;28;20252;-72
2022/12/03 08:05:43;;;;;;;32.63;18.07;;;2.90;99.90;;;;;;5095489;28;20160;-72
2022/12/03 08:08:09;;;;;;;41.57;23.77;;;3.00;99.90;;;;;;5095673;28;20172;-71
2022/12/03 08:10:35;;;;;;;43.13;23.83;;;3.00;99.90;;;;;;5095110;28;20695;-71
2022/12/03 08:13:05;;;;;;;36.17;19.57;;;3.00;99.90;;;;;;5095438;28;20190;-72
2022/12/03 08:15:30;;;;;;;36.67;21.37;;;3.00;99.90;;;;;;5077259;28;20175;-72
2022/12/03 08:17:58;;;;;;;39.77;22.60;;;2.90;99.90;;;;;;5095295;28;20217;-72
2022/12/03 08:20:28;;;;;;;39.33;21.60;;;2.90;99.90;;;;;;5095007;28;20176;-71
2022/12/03 08:22:54;;;;;;;43.60;24.30;;;2.90;99.90;;;;;;5076942;28;20229;-72
2022/12/03 08:25:24;;;;;;;40.27;20.87;;;3.00;99.90;;;;;;5094987;28;20275;-72
2022/12/03 08:27:52;;;;;;;44.30;26.03;;;2.90;99.90;;;;;;5095308;28;20171;-72
2022/12/03 08:30:18;;;;;;;41.70;23.90;;;3.00;99.90;;;;;;5095268;28;20186;-71
2022/12/03 08:32:44;;;;;;;37.83;21.83;;;3.00;99.90;;;;;;5095038;28;20677;-72
2022/12/03 08:35:30;;;;;;;44.30;24.50;;;3.00;99.90;;;;;;5094792;28;20630;-72
2022/12/03 08:38:08;;;;;;;42.53;24.97;;;3.00;99.90;;;;;;5094610;28;20639;-72
2022/12/03 08:40:41;;;;;;;42.90;23.23;;;3.00;99.90;;;;;;5076434;28;20207;-71
2022/12/03 08:43:17;;;;;;;48.27;24.87;;;3.00;99.90;;;;;;5094746;28;20573;-72
2022/12/03 08:45:43;;;;;;;48.80;26.57;;;3.00;99.90;;;;;;5094806;28;20167;-72
2022/12/03 08:48:32;;;;;;;43.87;25.33;;;3.10;99.90;;;;;;5094659;28;20226;-72
2022/12/03 08:51:05;;;;;;;41.10;21.50;;;3.10;99.90;;;;;;5094187;28;20189;-71
2022/12/03 08:53:46;;;;;;;45.27;24.23;;;3.20;99.90;;;;;;5094051;28;20627;-72
2022/12/03 08:56:21;;;;;;;37.70;18.80;;;3.10;99.90;;;;;;5094455;28;20168;-71
2022/12/03 08:58:51;;;;;;;39.53;20.83;;;3.10;99.90;;;;;;5094594;28;20168;-72
2022/12/03 09:01:30;;;;;;;37.00;18.50;;;3.10;99.90;;;;;;5094395;28;20215;-71
2022/12/03 09:04:03;;;;;;;43.47;23.63;;;3.20;99.90;;;;;;5076133;28;20202;-71
2022/12/03 09:06:29;;;;;;;45.47;24.27;;;3.10;99.90;;;;;;5093688;28;20246;-71
2022/12/03 09:08:54;;;;;;;35.80;19.07;;;3.20;99.90;;;;;;5093932;28;20597;-71
2022/12/03 09:11:20;;;;;;;44.13;26.23;;;3.10;99.90;;;;;;5093869;28;20224;-71
2022/12/03 09:14:01;;;;;;;46.07;25.57;;;3.10;99.90;;;;;;5032336;28;20194;-72
2022/12/03 09:16:27;;;;;;;43.00;23.00;;;3.20;99.90;;;;;;5031763;28;20277;-72
2022/12/03 09:18:52;;;;;;;44.20;23.30;;;3.20;99.90;;;;;;5031622;28;20537;-72
2022/12/03 09:21:18;;;;;;;42.27;22.07;;;3.20;99.90;;;;;;5031465;28;20214;-72
2022/12/03 09:23:43;;;;;;;41.10;23.37;;;3.30;99.90;;;;;;5031697;28;20178;-72
2022/12/03 09:26:09;;;;;;;47.30;26.30;;;3.30;99.90;;;;;;5031767;28;20730;-71
2022/12/03 09:28:34;;;;;;;43.77;25.27;;;3.30;99.90;;;;;;5031168;28;20196;-72
2022/12/03 09:31:00;;;;;;;45.37;24.67;;;3.30;99.90;;;;;;5031868;28;20240;-71
2022/12/03 09:33:25;;;;;;;44.97;24.90;;;3.30;99.90;;;;;;5031618;28;20572;-72
2022/12/03 09:35:51;;;;;;;36.37;19.63;;;3.20;99.90;;;;;;5031829;28;20174;-71
2022/12/03 09:38:17;;;;;;;36.77;20.37;;;3.20;99.90;;;;;;5030900;28;20540;-71
2022/12/03 09:40:42;;;;;;;46.83;25.67;;;3.20;99.90;;;;;;5031531;28;20208;-72
2022/12/03 09:43:09;;;;;;;45.53;24.50;;;3.20;99.90;;;;;;5031205;28;20186;-72
2022/12/03 09:45:34;;;;;;;43.50;24.40;;;3.30;99.90;;;;;;5031035;28;20225;-72
2022/12/03 09:48:02;;;;;;;48.13;25.70;;;3.30;99.90;;;;;;5014526;28;20547;-71
2022/12/03 09:50:30;;;;;;;45.70;26.23;;;3.30;99.90;;;;;;5044191;28;20191;-71
2022/12/03 09:52:58;;;;;;;47.23;24.77;;;3.50;99.90;;;;;;5093004;28;20221;-73
2022/12/03 09:55:26;;;;;;;46.63;26.03;;;3.40;99.90;;;;;;5093246;28;20171;-71
2022/12/03 09:57:53;;;;;;;48.17;26.50;;;3.50;99.90;;;;;;5093133;28;20164;-71
2022/12/03 10:00:25;;;;;;;44.27;25.87;;;3.50;99.90;;;;;;5092586;28;20168;-72
2022/12/03 10:02:55;;;;;;;41.57;22.80;;;3.50;99.90;;;;;;5075409;28;20172;-72
2022/12/03 10:05:21;;;;;;;46.53;23.90;;;3.30;99.90;;;;;;5092336;28;20160;-72
2022/12/03 10:07:49;;;;;;;43.40;25.50;;;3.50;99.90;;;;;;5093237;28;20245;-71
2022/12/03 10:10:21;;;;;;;34.27;16.60;;;3.50;99.90;;;;;;5092952;28;20224;-72
2022/12/03 10:12:47;;;;;;;45.23;25.40;;;3.50;99.90;;;;;;5093128;28;20203;-72
2022/12/03 10:15:15;;;;;;;40.83;19.07;;;3.40;99.90;;;;;;5092835;28;20230;-71
2022/12/03 10:17:41;;;;;;;43.53;22.67;;;3.40;99.90;;;;;;5093395;28;20246;-72
2022/12/03 10:20:11;;;;;;;37.83;20.13;;;3.50;99.90;;;;;;5092685;28;20179;-72
2022/12/03 10:22:36;;;;;;;40.43;21.47;;;3.50;99.90;;;;;;5092901;28;20183;-71
2022/12/03 10:25:12;;;;;;;36.20;18.77;;;3.40;99.90;;;;;;5092820;28;20173;-71
2022/12/03 10:27:39;;;;;;;44.43;24.43;;;3.40;99.90;;;;;;5093363;28;20163;-72
2022/12/03 10:30:16;;;;;;;41.00;22.97;;;3.40;99.90;;;;;;5092969;28;20176;-71
2022/12/03 10:32:44;;;;;;;43.50;23.37;;;3.50;99.90;;;;;;5093323;28;20172;-71
2022/12/03 10:35:14;;;;;;;44.97;25.90;;;3.50;99.90;;;;;;5073649;28;20195;-71
2022/12/03 10:38:03;;;;;;;43.27;23.10;;;3.60;99.90;;;;;;5092942;28;20242;-72
2022/12/03 10:40:32;;;;;;;43.73;22.73;;;3.50;99.90;;;;;;5092623;28;20171;-71
2022/12/03 10:43:18;;;;;;;40.33;21.83;;;3.60;99.90;;;;;;5092998;28;20176;-71
2022/12/03 10:45:48;;;;;;;44.20;25.23;;;3.70;99.90;;;;;;5092682;28;20216;-71
2022/12/03 10:48:24;;;;;;;44.67;22.40;;;3.70;99.90;;;;;;5092877;28;20159;-70
2022/12/03 10:51:03;;;;;;;46.70;25.30;;;3.70;99.90;;;;;;5091884;28;20163;-71
2022/12/03 10:53:34;;;;;;;45.90;22.80;;;3.60;99.90;;;;;;5092540;28;20171;-72
2022/12/03 10:56:03;;;;;;;43.63;22.70;;;3.70;99.90;;;;;;5092044;28;20251;-71
2022/12/03 10:58:32;;;;;;;48.70;25.67;;;3.60;99.90;;;;;;5092022;28;20179;-71
2022/12/03 11:01:02;;;;;;;45.90;24.13;;;3.70;99.90;;;;;;5092023;28;20707;-70
2022/12/03 11:03:29;;;;;;;42.67;25.23;;;3.90;99.90;;;;;;5092459;28;20200;-71
2022/12/03 11:05:56;;;;;;;45.37;24.43;;;3.80;99.90;;;;;;5091817;28;20183;-73
2022/12/03 11:08:35;;;;;;;44.67;25.87;;;3.80;99.90;;;;;;5074200;28;20255;-72
2022/12/03 11:11:06;;;;;;;42.57;23.50;;;3.70;99.90;;;;;;5091714;28;20219;-71
2022/12/03 11:13:32;;;;;;;42.07;22.77;;;3.70;99.90;;;;;;5092490;28;20172;-72
2022/12/03 11:15:59;;;;;;;43.43;24.10;;;3.60;99.90;;;;;;5094357;28;20208;-73
2022/12/03 11:18:37;;;;;;;47.17;26.00;;;3.60;99.90;;;;;;5095882;28;20171;-71
2022/12/03 11:21:12;;;;;;;40.17;22.50;;;3.70;99.90;;;;;;5096272;28;20208;-72
2022/12/03 11:23:44;;;;;;;35.30;18.37;;;3.70;99.90;;;;;;5096414;28;20160;-71
2022/12/03 11:26:15;;;;;;;42.57;22.70;;;3.70;99.90;;;;;;5096491;28;20168;-73
2022/12/03 11:28:46;;;;;;;44.50;24.20;;;3.60;99.90;;;;;;5096089;28;20164;-73
2022/12/03 11:31:37;;;;;;;46.13;24.13;;;3.70;99.90;;;;;;5096006;28;20217;-70
2022/12/03 11:34:18;;;;;;;45.33;25.67;;;3.80;99.90;;;;;;5086036;28;20176;-71
2022/12/03 11:37:08;;;;;;;44.30;25.23;;;3.80;99.90;;;;;;5096363;28;20164;-71
2022/12/03 11:39:49;;;;;;;46.97;24.60;;;3.80;99.90;;;;;;5096174;28;20225;-72
2022/12/03 11:42:26;;;;;;;42.23;23.33;;;3.70;99.90;;;;;;5077731;28;20214;-71
2022/12/03 11:45:04;;;;;;;41.83;23.53;;;3.70;99.90;;;;;;5094847;28;20183;-71
2022/12/03 11:47:29;;;;;;;41.77;24.10;;;3.60;99.90;;;;;;5095692;28;20273;-71
2022/12/03 11:49:56;;;;;;;45.47;25.17;;;3.80;99.90;;;;;;5095062;28;20581;-71
2022/12/03 11:52:29;;;;;;;43.90;23.23;;;3.90;99.90;;;;;;5095360;28;20172;-72
2022/12/03 11:55:14;;;;;;;45.97;24.57;;;4.00;99.90;;;;;;5095377;28;20179;-71
2022/12/03 11:57:42;;;;;;;46.30;25.33;;;4.00;99.90;;;;;;5095197;28;20164;-72
2022/12/03 12:00:21;;;;;;;36.33;21.90;;;4.00;99.90;;;;;;5095531;28;20179;-72
2022/12/03 12:02:48;;;;;;;43.47;24.27;;;3.90;99.90;;;;;;5095267;28;20187;-71
2022/12/03 12:05:24;;;;;;;41.40;23.53;;;3.90;99.90;;;;;;5094769;28;20164;-72
2022/12/03 12:07:50;;;;;;;42.13;21.43;;;4.00;99.90;;;;;;5095387;28;20171;-73
2022/12/03 12:10:39;;;;;;;36.10;20.53;;;4.00;99.90;;;;;;5094964;28;20222;-72
2022/12/03 12:13:05;;;;;;;38.50;21.97;;;3.90;99.90;;;;;;5095351;28;20165;-73
2022/12/03 12:15:42;;;;;;;34.53;19.73;;;3.90;99.90;;;;;;5093854;28;20171;-71
2022/12/03 12:18:35;;;;;;;36.13;22.90;;;3.90;99.90;;;;;;5095129;28;20168;-70
2022/12/03 12:21:41;;;;;;;37.97;22.23;;;3.70;99.90;;;;;;5095072;28;20282;-71
2022/12/03 12:24:35;;;;;;;39.87;20.23;;;3.90;99.90;;;;;;5094734;28;20710;-72
2022/12/03 12:27:05;;;;;;;36.47;20.87;;;3.90;99.90;;;;;;5094556;28;20254;-73
2022/12/03 12:29:31;;;;;;;37.97;19.87;;;3.80;99.90;;;;;;5095115;28;20176;-72
2022/12/03 12:32:07;;;;;;;37.63;19.93;;;3.80;99.90;;;;;;5094272;28;20171;-71
2022/12/03 12:34:37;;;;;;;38.57;22.03;;;3.90;99.90;;;;;;5094491;28;20163;-72
2022/12/03 12:37:09;;;;;;;39.50;23.63;;;3.80;99.90;;;;;;5095107;28;20682;-72
2022/12/03 12:39:35;;;;;;;36.13;21.97;;;3.80;99.90;;;;;;5094860;28;20176;-70
2022/12/03 12:42:05;;;;;;;40.90;23.63;;;3.90;99.90;;;;;;5093999;28;20298;-72
2022/12/03 12:44:30;;;;;;;37.13;19.57;;;4.00;99.90;;;;;;5094244;28;20176;-71
2022/12/03 12:46:59;;;;;;;44.23;24.57;;;4.00;99.90;;;;;;5094410;28;20172;-71
2022/12/03 12:49:25;;;;;;;37.20;19.73;;;4.00;99.90;;;;;;5093129;28;20176;-71
2022/12/03 12:51:51;;;;;;;41.60;23.07;;;3.80;99.90;;;;;;5094455;28;20167;-71
2022/12/03 12:54:17;;;;;;;37.43;22.17;;;3.80;99.90;;;;;;5093630;28;20627;-70
2022/12/03 12:56:46;;;;;;;35.93;18.43;;;3.80;99.90;;;;;;5094126;28;20175;-71
2022/12/03 12:59:14;;;;;;;37.20;21.73;;;3.80;99.90;;;;;;5093856;28;20259;-72
2022/12/03 13:01:41;;;;;;;39.97;19.60;;;3.80;99.90;;;;;;5094516;28;20212;-71
2022/12/03 13:04:29;;;;;;;39.33;21.73;;;3.60;99.90;;;;;;5094243;28;20168;-71